Gracemont, OK (73042)

10:24 PM CDT on April 29, 2017 (GMT -0500)
Peck's country | | Change Station

Elev 1255 ft 35.10 °N, 98.32 °W | Updated 4 minutes ago

Overcast
Overcast
47.2 °F
Feels Like 46 °F
N
4.0
Wind Variable Wind from WSW
Gusts 9.0 mph

Today
High -- | Low -- °F
--% Chance of Precip.
Yesterday
High -- | Low -- °F
Precip. -- in
Pressure 29.73 in
Visibility 2.5 miles
Clouds Overcast 500 ft
Windchill 46 °F
Dew Point 45 °F
Humidity 92%
Rainfall 1.21 in
Snow Depth Not available.
6:43 AM 8:17 PM
Waxing Crescent, 19% visible
METAR KRQO 300315Z AUTO 32012KT 2 1/2SM -DZ BR OVC005 08/08 A2973 RMK AO2 P0001 T00800077
Pressure 29.73 in
Visibility 2.5 miles
Clouds Overcast 500 ft
Windchill 46 °F
Dew Point 45 °F
Humidity 92%
Rainfall 1.21 in
Snow Depth Not available.
6:43 AM 8:17 PM
Waxing Crescent, 19% visible
METAR KRQO 300315Z AUTO 32012KT 2 1/2SM -DZ BR OVC005 08/08 A2973 RMK AO2 P0001 T00800077

Get Severe Weather Alerts

Thanks for signing up!

Be on the lookout for a verification email in your inbox.

You'll start receiving the daily forecast at 8 AM.

×

10-Day Weather Forecast

Almanac

Astronomy

Apr. 29, 2017 Rise Set
Actual Time
Civil Twilight
Nautical Twilight
Astronomical Twilight
Moon
Length of Visible Light
Length of Day
Tomorrow will be .
, % of the Moon is Illuminated

Today's Extremes

State Highs State Lows

Community

WunderPhotos

WunderBlog® & News

Nearby

Air Quality

  Air Quality AQ Index Pollutant
Not available.

Snow Depth

Station Depth Elevation

Earthquake Activity

City Distance Mag. Time & Date
Minimum magnitude displayed is 2.5.

Coastal Water Temperatures

Place Temperature

Stations

Nearby Weather Stations

Station Location Temp. Windchill Dew Point Humidity Wind Precip. Elev Updated Type
                   

Watches & Warnings

There are currently no watches in effect.